Airfield :
LOGIN :

Register | Disclaimer

   EN    FR    IT 

 










Legend :    VFR   Marginal VFR   IFR   Intensive IFR   Very Intensive IFR
Visi :
Ceiling :
>= 8 km
>= 3000ft
5 to 8 km
1000 to 3000 ft
1500m to 5 km
500 to 1000 ft
800 to 1500m
200 to 500 ft
< 800m
< 200 ft
Symbols :   Thunderstorms  Fog  Heavy snow  Heavy precipitations  Wind > 20 kt
SIGMETs :     Misc.  Thunderstorms  Icing  Turbulence  Mountain Waves  Volcanic Ashes






- Airport Elevation : 3 ft
- IATA code : LWR


EHLW - Leuuwarden Air Base

CURRENT METAR :
  • 181425Z AUTO 29011KT 260V330 9999 OVC035 09/02 Q1019 BLU

EXPIRED METARs :
  • 181414Z AUTO 30012KT 260V320 9999 FEW027 OVC037 09/03 Q1019 BLU
  • 181355Z AUTO 30012KT 250V320 9999 SCT030 OVC035 09/03 Q1019 BLU NOSIG
  • 181325Z AUTO 30011KT 260V350 9999 FEW027 BKN031 OVC036 09/03 Q1019 BLU NOSIG
  • 181255Z AUTO 31012KT 260V320 9999 FEW031 OVC037 09/03 Q1019 BLU NOSIG
  • 181225Z AUTO 31011KT 270V340 9999 SCT032 BKN036 OVC041 09/03 Q1019 BLU NOSIG
  • 181155Z AUTO 31011KT 260V340 9999 FEW031 OVC036 09/03 Q1019 BLU NOSIG
  • 181125Z AUTO 31010KT 260V340 9999 SCT029 OVC033 09/03 Q1019 BLU NOSIG
  • 181055Z AUTO 32011KT 270V350 9999 SCT028 BKN032 OVC037 09/04 Q1019 BLU NOSIG
  • 181038Z AUTO 32010KT 270V360 9999 FEW023 BKN027 OVC030 09/04 Q1019 BLU NOSIG
  • 181029Z AUTO 31005KT 270V340 9999 SCT023 BKN038 OVC043 09/04 Q1019 WHT NOSIG
  • 181025Z AUTO 30006KT 270V350 9999 FEW026 BKN037 OVC042 09/05 Q1019 REDZ BLU NOSIG
  • 180955Z AUTO 29008KT 250V340 9999 RA FEW017 SCT021 OVC029 08/05 Q1019 WHT NOSIG

TAF TAF EHLW
Valid from the 18 at 13:00 until the 19 at 01:00 UTC


181227Z 1813/1901 31008KT 9999 SCT035 BKN045
PROB40
TEMPO 1814/1817 29010G20KT
BECMG 1820/1823 25015G25KT 4500 RA SCT018 BKN025
TEMPO 1900/1901 SCT008 BKN012 OVC015



MET'MAP, your aeronautical weather chart ! - Copyright ORBIFLY December 2007 - Disclaimer

ORBIFLY MET'MAP TEAM :

Programming & Development : Alexandra Zaïnal
Original concept : Baudouin d'Aumeries
Technical & hardware support : Manuel Goepfert
Assistance : Marc-Olivier Méhu




SOURCES & CREDITS :

   NOAA